sensor_id;sensor_type;location;lat;lon;timestamp;P1;durP1;ratioP1;P2;durP2;ratioP2
75426;SDS011;64007;50.632;13.700;2023-07-09T00:01:10;8.93;;;2.47;;
75426;SDS011;64007;50.632;13.700;2023-07-09T00:03:39;2.17;;;1.80;;
75426;SDS011;64007;50.632;13.700;2023-07-09T00:06:06;2.80;;;2.28;;
75426;SDS011;64007;50.632;13.700;2023-07-09T00:08:33;3.60;;;2.22;;
75426;SDS011;64007;50.632;13.700;2023-07-09T00:10:59;4.05;;;2.30;;
75426;SDS011;64007;50.632;13.700;2023-07-09T00:13:25;6.30;;;2.42;;
75426;SDS011;64007;50.632;13.700;2023-07-09T00:15:54;8.85;;;2.13;;
75426;SDS011;64007;50.632;13.700;2023-07-09T00:18:23;3.47;;;2.50;;
75426;SDS011;64007;50.632;13.700;2023-07-09T00:20:49;4.88;;;2.22;;
75426;SDS011;64007;50.632;13.700;2023-07-09T00:23:15;4.03;;;2.33;;
75426;SDS011;64007;50.632;13.700;2023-07-09T00:25:44;9.52;;;2.20;;
75426;SDS011;64007;50.632;13.700;2023-07-09T00:28:14;14.07;;;2.22;;
75426;SDS011;64007;50.632;13.700;2023-07-09T00:30:41;4.68;;;2.63;;
75426;SDS011;64007;50.632;13.700;2023-07-09T00:33:11;2.90;;;2.08;;
75426;SDS011;64007;50.632;13.700;2023-07-09T00:35:41;8.73;;;2.42;;
75426;SDS011;64007;50.632;13.700;2023-07-09T00:38:14;6.15;;;2.40;;
75426;SDS011;64007;50.632;13.700;2023-07-09T00:40:46;3.72;;;2.28;;
75426;SDS011;64007;50.632;13.700;2023-07-09T00:43:24;4.60;;;2.40;;
75426;SDS011;64007;50.632;13.700;2023-07-09T00:48:56;4.68;;;2.40;;
75426;SDS011;64007;50.632;13.700;2023-07-09T00:51:38;5.13;;;2.10;;
75426;SDS011;64007;50.632;13.700;2023-07-09T00:54:41;4.72;;;2.30;;
75426;SDS011;64007;50.632;13.700;2023-07-09T00:57:07;2.78;;;2.13;;
75426;SDS011;64007;50.632;13.700;2023-07-09T00:59:37;4.60;;;2.47;;
75426;SDS011;64007;50.632;13.700;2023-07-09T01:02:07;4.22;;;2.35;;
75426;SDS011;64007;50.632;13.700;2023-07-09T01:04:33;6.57;;;2.50;;
75426;SDS011;64007;50.632;13.700;2023-07-09T01:07:00;3.88;;;2.40;;
75426;SDS011;64007;50.632;13.700;2023-07-09T01:09:25;3.00;;;2.03;;
75426;SDS011;64007;50.632;13.700;2023-07-09T01:11:52;5.28;;;2.17;;
75426;SDS011;64007;50.632;13.700;2023-07-09T01:14:21;3.35;;;2.28;;
75426;SDS011;64007;50.632;13.700;2023-07-09T01:17:01;5.00;;;2.40;;
75426;SDS011;64007;50.632;13.700;2023-07-09T01:19:35;4.72;;;2.47;;
75426;SDS011;64007;50.632;13.700;2023-07-09T01:22:08;3.38;;;2.38;;
75426;SDS011;64007;50.632;13.700;2023-07-09T01:25:05;3.70;;;2.35;;
75426;SDS011;64007;50.632;13.700;2023-07-09T01:27:33;4.50;;;2.47;;
75426;SDS011;64007;50.632;13.700;2023-07-09T01:30:05;4.45;;;2.00;;
75426;SDS011;64007;50.632;13.700;2023-07-09T01:32:40;3.33;;;2.35;;
75426;SDS011;64007;50.632;13.700;2023-07-09T01:35:11;4.20;;;2.15;;
75426;SDS011;64007;50.632;13.700;2023-07-09T01:37:40;4.28;;;2.17;;
75426;SDS011;64007;50.632;13.700;2023-07-09T01:40:07;3.45;;;1.90;;
75426;SDS011;64007;50.632;13.700;2023-07-09T01:42:35;6.57;;;2.63;;
75426;SDS011;64007;50.632;13.700;2023-07-09T01:45:04;4.22;;;2.58;;
75426;SDS011;64007;50.632;13.700;2023-07-09T01:47:31;4.43;;;2.30;;
75426;SDS011;64007;50.632;13.700;2023-07-09T01:49:57;3.47;;;2.25;;
75426;SDS011;64007;50.632;13.700;2023-07-09T01:52:23;4.60;;;2.20;;
75426;SDS011;64007;50.632;13.700;2023-07-09T01:54:52;5.00;;;2.53;;
75426;SDS011;64007;50.632;13.700;2023-07-09T01:57:20;9.30;;;2.20;;
75426;SDS011;64007;50.632;13.700;2023-07-09T01:59:53;4.57;;;2.58;;
75426;SDS011;64007;50.632;13.700;2023-07-09T02:02:20;3.65;;;2.10;;
75426;SDS011;64007;50.632;13.700;2023-07-09T02:04:54;3.42;;;2.10;;
75426;SDS011;64007;50.632;13.700;2023-07-09T02:07:22;8.40;;;2.58;;
75426;SDS011;64007;50.632;13.700;2023-07-09T02:09:48;4.30;;;2.08;;
75426;SDS011;64007;50.632;13.700;2023-07-09T02:12:15;5.07;;;2.20;;
75426;SDS011;64007;50.632;13.700;2023-07-09T02:14:41;3.90;;;2.40;;
75426;SDS011;64007;50.632;13.700;2023-07-09T02:17:09;6.15;;;2.30;;
75426;SDS011;64007;50.632;13.700;2023-07-09T02:19:35;2.97;;;1.88;;
75426;SDS011;64007;50.632;13.700;2023-07-09T02:22:02;2.80;;;2.03;;
75426;SDS011;64007;50.632;13.700;2023-07-09T02:24:28;4.53;;;1.98;;
75426;SDS011;64007;50.632;13.700;2023-07-09T02:26:54;2.78;;;2.10;;
75426;SDS011;64007;50.632;13.700;2023-07-09T02:29:21;6.70;;;2.50;;
75426;SDS011;64007;50.632;13.700;2023-07-09T02:31:48;3.30;;;2.00;;
75426;SDS011;64007;50.632;13.700;2023-07-09T02:34:14;3.78;;;1.80;;
75426;SDS011;64007;50.632;13.700;2023-07-09T02:36:40;3.47;;;2.03;;
75426;SDS011;64007;50.632;13.700;2023-07-09T02:39:09;5.47;;;2.35;;
75426;SDS011;64007;50.632;13.700;2023-07-09T02:41:36;8.40;;;2.60;;
75426;SDS011;64007;50.632;13.700;2023-07-09T02:44:02;4.07;;;2.40;;
75426;SDS011;64007;50.632;13.700;2023-07-09T02:46:29;10.15;;;2.38;;
75426;SDS011;64007;50.632;13.700;2023-07-09T02:48:54;5.13;;;2.30;;
75426;SDS011;64007;50.632;13.700;2023-07-09T02:51:21;5.68;;;2.55;;
75426;SDS011;64007;50.632;13.700;2023-07-09T02:53:47;4.18;;;2.40;;
75426;SDS011;64007;50.632;13.700;2023-07-09T02:56:13;4.53;;;2.10;;
75426;SDS011;64007;50.632;13.700;2023-07-09T02:58:39;10.18;;;2.45;;
75426;SDS011;64007;50.632;13.700;2023-07-09T03:01:04;3.80;;;2.25;;
75426;SDS011;64007;50.632;13.700;2023-07-09T03:03:30;11.63;;;2.80;;
75426;SDS011;64007;50.632;13.700;2023-07-09T03:05:56;6.13;;;2.60;;
75426;SDS011;64007;50.632;13.700;2023-07-09T03:08:22;3.78;;;2.60;;
75426;SDS011;64007;50.632;13.700;2023-07-09T03:10:48;4.63;;;2.47;;
75426;SDS011;64007;50.632;13.700;2023-07-09T03:13:13;7.82;;;2.40;;
75426;SDS011;64007;50.632;13.700;2023-07-09T03:15:39;5.45;;;2.35;;
75426;SDS011;64007;50.632;13.700;2023-07-09T03:18:05;3.65;;;2.30;;
75426;SDS011;64007;50.632;13.700;2023-07-09T03:20:31;6.43;;;2.50;;
75426;SDS011;64007;50.632;13.700;2023-07-09T03:22:57;5.38;;;2.30;;
75426;SDS011;64007;50.632;13.700;2023-07-09T03:25:22;5.70;;;2.70;;
75426;SDS011;64007;50.632;13.700;2023-07-09T03:27:48;7.15;;;2.22;;
75426;SDS011;64007;50.632;13.700;2023-07-09T03:30:14;4.00;;;2.45;;
75426;SDS011;64007;50.632;13.700;2023-07-09T03:32:40;4.43;;;2.33;;
75426;SDS011;64007;50.632;13.700;2023-07-09T03:35:06;5.57;;;2.45;;
75426;SDS011;64007;50.632;13.700;2023-07-09T03:37:32;5.45;;;2.80;;
75426;SDS011;64007;50.632;13.700;2023-07-09T03:39:58;6.05;;;2.47;;
75426;SDS011;64007;50.632;13.700;2023-07-09T03:42:23;4.53;;;2.50;;
75426;SDS011;64007;50.632;13.700;2023-07-09T03:44:49;5.03;;;2.35;;
75426;SDS011;64007;50.632;13.700;2023-07-09T03:47:15;9.23;;;2.80;;
75426;SDS011;64007;50.632;13.700;2023-07-09T03:49:41;3.80;;;2.47;;
75426;SDS011;64007;50.632;13.700;2023-07-09T03:52:07;6.63;;;2.42;;
75426;SDS011;64007;50.632;13.700;2023-07-09T03:54:33;7.53;;;2.58;;
75426;SDS011;64007;50.632;13.700;2023-07-09T03:56:58;7.07;;;2.50;;
75426;SDS011;64007;50.632;13.700;2023-07-09T03:59:24;5.78;;;2.50;;
75426;SDS011;64007;50.632;13.700;2023-07-09T04:01:50;5.35;;;2.50;;
75426;SDS011;64007;50.632;13.700;2023-07-09T04:04:16;3.90;;;2.05;;
75426;SDS011;64007;50.632;13.700;2023-07-09T04:06:45;4.15;;;2.22;;
75426;SDS011;64007;50.632;13.700;2023-07-09T04:09:12;4.35;;;2.50;;
75426;SDS011;64007;50.632;13.700;2023-07-09T04:11:37;5.20;;;2.20;;
75426;SDS011;64007;50.632;13.700;2023-07-09T04:14:03;3.97;;;2.00;;
75426;SDS011;64007;50.632;13.700;2023-07-09T04:16:29;6.07;;;2.42;;
75426;SDS011;64007;50.632;13.700;2023-07-09T04:18:55;4.15;;;2.40;;
75426;SDS011;64007;50.632;13.700;2023-07-09T04:21:20;5.80;;;2.30;;
75426;SDS011;64007;50.632;13.700;2023-07-09T04:23:46;3.97;;;2.38;;
75426;SDS011;64007;50.632;13.700;2023-07-09T04:26:15;3.72;;;2.30;;
75426;SDS011;64007;50.632;13.700;2023-07-09T04:28:41;4.47;;;2.35;;
75426;SDS011;64007;50.632;13.700;2023-07-09T04:31:07;4.68;;;2.60;;
75426;SDS011;64007;50.632;13.700;2023-07-09T04:33:33;5.03;;;2.20;;
75426;SDS011;64007;50.632;13.700;2023-07-09T04:36:01;4.57;;;2.58;;
75426;SDS011;64007;50.632;13.700;2023-07-09T04:38:26;3.38;;;2.25;;
75426;SDS011;64007;50.632;13.700;2023-07-09T04:40:53;3.38;;;2.25;;
75426;SDS011;64007;50.632;13.700;2023-07-09T04:43:19;4.10;;;2.20;;
75426;SDS011;64007;50.632;13.700;2023-07-09T04:45:45;4.13;;;2.30;;
75426;SDS011;64007;50.632;13.700;2023-07-09T04:48:10;3.65;;;2.35;;
75426;SDS011;64007;50.632;13.700;2023-07-09T04:50:36;5.22;;;2.20;;
75426;SDS011;64007;50.632;13.700;2023-07-09T04:53:02;5.65;;;2.30;;
75426;SDS011;64007;50.632;13.700;2023-07-09T04:55:28;3.30;;;2.20;;
75426;SDS011;64007;50.632;13.700;2023-07-09T04:57:54;4.43;;;2.60;;
75426;SDS011;64007;50.632;13.700;2023-07-09T05:00:20;3.20;;;2.13;;
75426;SDS011;64007;50.632;13.700;2023-07-09T05:02:46;3.90;;;2.60;;
75426;SDS011;64007;50.632;13.700;2023-07-09T05:05:11;10.77;;;3.60;;
75426;SDS011;64007;50.632;13.700;2023-07-09T05:07:38;6.35;;;2.45;;
75426;SDS011;64007;50.632;13.700;2023-07-09T05:10:04;5.28;;;2.47;;
75426;SDS011;64007;50.632;13.700;2023-07-09T05:12:31;4.47;;;2.88;;
75426;SDS011;64007;50.632;13.700;2023-07-09T05:14:57;5.53;;;3.00;;
75426;SDS011;64007;50.632;13.700;2023-07-09T05:17:22;3.63;;;2.50;;
75426;SDS011;64007;50.632;13.700;2023-07-09T05:19:49;7.38;;;2.60;;
75426;SDS011;64007;50.632;13.700;2023-07-09T05:22:16;3.45;;;2.40;;
75426;SDS011;64007;50.632;13.700;2023-07-09T05:24:41;6.43;;;2.60;;
75426;SDS011;64007;50.632;13.700;2023-07-09T05:27:08;5.60;;;3.20;;
75426;SDS011;64007;50.632;13.700;2023-07-09T05:29:34;8.07;;;3.30;;
75426;SDS011;64007;50.632;13.700;2023-07-09T05:32:00;4.88;;;2.97;;
75426;SDS011;64007;50.632;13.700;2023-07-09T05:34:25;10.77;;;3.08;;
75426;SDS011;64007;50.632;13.700;2023-07-09T05:36:51;11.98;;;3.25;;
75426;SDS011;64007;50.632;13.700;2023-07-09T05:39:17;8.38;;;3.42;;
75426;SDS011;64007;50.632;13.700;2023-07-09T05:41:43;6.10;;;3.38;;
75426;SDS011;64007;50.632;13.700;2023-07-09T05:44:09;7.25;;;3.63;;
75426;SDS011;64007;50.632;13.700;2023-07-09T05:46:35;12.00;;;4.15;;
75426;SDS011;64007;50.632;13.700;2023-07-09T05:49:02;6.93;;;3.13;;
75426;SDS011;64007;50.632;13.700;2023-07-09T05:51:32;5.10;;;3.15;;
75426;SDS011;64007;50.632;13.700;2023-07-09T05:53:57;6.68;;;3.30;;
75426;SDS011;64007;50.632;13.700;2023-07-09T05:56:23;10.13;;;3.15;;
75426;SDS011;64007;50.632;13.700;2023-07-09T05:58:49;14.63;;;3.50;;
75426;SDS011;64007;50.632;13.700;2023-07-09T06:01:14;7.32;;;3.10;;
75426;SDS011;64007;50.632;13.700;2023-07-09T06:03:40;5.43;;;3.28;;
75426;SDS011;64007;50.632;13.700;2023-07-09T06:06:06;5.57;;;3.33;;
75426;SDS011;64007;50.632;13.700;2023-07-09T06:08:32;6.00;;;3.30;;
75426;SDS011;64007;50.632;13.700;2023-07-09T06:10:59;6.18;;;3.15;;
75426;SDS011;64007;50.632;13.700;2023-07-09T06:13:26;5.95;;;3.17;;
75426;SDS011;64007;50.632;13.700;2023-07-09T06:15:56;7.25;;;3.58;;
75426;SDS011;64007;50.632;13.700;2023-07-09T06:18:23;8.77;;;3.45;;
75426;SDS011;64007;50.632;13.700;2023-07-09T06:20:51;7.90;;;3.40;;
75426;SDS011;64007;50.632;13.700;2023-07-09T06:23:17;9.02;;;3.28;;
75426;SDS011;64007;50.632;13.700;2023-07-09T06:25:45;6.47;;;3.70;;
75426;SDS011;64007;50.632;13.700;2023-07-09T06:28:17;5.45;;;3.20;;
75426;SDS011;64007;50.632;13.700;2023-07-09T06:30:46;7.05;;;2.97;;
75426;SDS011;64007;50.632;13.700;2023-07-09T06:33:13;7.53;;;3.33;;
75426;SDS011;64007;50.632;13.700;2023-07-09T06:35:49;6.93;;;3.40;;
75426;SDS011;64007;50.632;13.700;2023-07-09T06:38:18;5.20;;;3.35;;
75426;SDS011;64007;50.632;13.700;2023-07-09T06:40:45;5.15;;;3.10;;
75426;SDS011;64007;50.632;13.700;2023-07-09T06:43:11;7.00;;;3.20;;
75426;SDS011;64007;50.632;13.700;2023-07-09T06:45:37;5.63;;;2.88;;
75426;SDS011;64007;50.632;13.700;2023-07-09T06:48:02;7.10;;;3.05;;
75426;SDS011;64007;50.632;13.700;2023-07-09T06:50:29;6.28;;;3.13;;
75426;SDS011;64007;50.632;13.700;2023-07-09T06:52:57;4.93;;;3.10;;
75426;SDS011;64007;50.632;13.700;2023-07-09T06:55:23;5.57;;;3.22;;
75426;SDS011;64007;50.632;13.700;2023-07-09T06:57:49;6.43;;;2.90;;
75426;SDS011;64007;50.632;13.700;2023-07-09T07:00:15;5.63;;;2.83;;
75426;SDS011;64007;50.632;13.700;2023-07-09T07:02:40;7.82;;;3.40;;
75426;SDS011;64007;50.632;13.700;2023-07-09T07:05:06;7.40;;;3.20;;
75426;SDS011;64007;50.632;13.700;2023-07-09T07:07:32;6.65;;;3.00;;
75426;SDS011;64007;50.632;13.700;2023-07-09T07:09:58;6.90;;;3.00;;
75426;SDS011;64007;50.632;13.700;2023-07-09T07:12:24;5.35;;;2.78;;
75426;SDS011;64007;50.632;13.700;2023-07-09T07:14:55;5.32;;;2.92;;
75426;SDS011;64007;50.632;13.700;2023-07-09T07:17:21;5.07;;;2.90;;
75426;SDS011;64007;50.632;13.700;2023-07-09T07:19:48;4.60;;;3.03;;
75426;SDS011;64007;50.632;13.700;2023-07-09T07:22:14;4.70;;;2.50;;
75426;SDS011;64007;50.632;13.700;2023-07-09T07:24:40;5.32;;;2.80;;
75426;SDS011;64007;50.632;13.700;2023-07-09T07:27:06;3.85;;;2.60;;
75426;SDS011;64007;50.632;13.700;2023-07-09T07:29:33;5.85;;;3.22;;
75426;SDS011;64007;50.632;13.700;2023-07-09T07:31:59;8.90;;;3.00;;
75426;SDS011;64007;50.632;13.700;2023-07-09T07:34:26;7.95;;;3.33;;
75426;SDS011;64007;50.632;13.700;2023-07-09T07:36:51;3.85;;;2.85;;
75426;SDS011;64007;50.632;13.700;2023-07-09T07:39:17;11.43;;;3.20;;
75426;SDS011;64007;50.632;13.700;2023-07-09T07:41:43;4.43;;;2.80;;
75426;SDS011;64007;50.632;13.700;2023-07-09T07:44:09;9.38;;;2.90;;
75426;SDS011;64007;50.632;13.700;2023-07-09T07:46:34;6.28;;;2.78;;
75426;SDS011;64007;50.632;13.700;2023-07-09T07:49:00;3.92;;;2.70;;
75426;SDS011;64007;50.632;13.700;2023-07-09T07:51:26;4.05;;;2.88;;
75426;SDS011;64007;50.632;13.700;2023-07-09T07:53:52;7.60;;;2.88;;
75426;SDS011;64007;50.632;13.700;2023-07-09T07:56:18;4.72;;;2.88;;
75426;SDS011;64007;50.632;13.700;2023-07-09T07:58:44;7.55;;;3.28;;
75426;SDS011;64007;50.632;13.700;2023-07-09T08:01:10;6.63;;;3.08;;
75426;SDS011;64007;50.632;13.700;2023-07-09T08:03:35;9.25;;;2.75;;
75426;SDS011;64007;50.632;13.700;2023-07-09T08:06:01;5.95;;;2.72;;
75426;SDS011;64007;50.632;13.700;2023-07-09T08:08:27;9.82;;;3.03;;
75426;SDS011;64007;50.632;13.700;2023-07-09T08:10:59;5.90;;;2.80;;
75426;SDS011;64007;50.632;13.700;2023-07-09T08:13:26;4.85;;;2.70;;
75426;SDS011;64007;50.632;13.700;2023-07-09T08:15:52;4.53;;;2.80;;
75426;SDS011;64007;50.632;13.700;2023-07-09T08:18:18;5.35;;;2.60;;
75426;SDS011;64007;50.632;13.700;2023-07-09T08:20:44;9.85;;;2.60;;
75426;SDS011;64007;50.632;13.700;2023-07-09T08:23:10;3.97;;;2.70;;
75426;SDS011;64007;50.632;13.700;2023-07-09T08:25:36;9.93;;;2.80;;
75426;SDS011;64007;50.632;13.700;2023-07-09T08:28:02;8.43;;;2.90;;
75426;SDS011;64007;50.632;13.700;2023-07-09T08:30:27;3.78;;;2.80;;
75426;SDS011;64007;50.632;13.700;2023-07-09T08:32:53;6.32;;;2.60;;
75426;SDS011;64007;50.632;13.700;2023-07-09T08:35:20;3.97;;;2.55;;
75426;SDS011;64007;50.632;13.700;2023-07-09T08:37:46;4.47;;;2.80;;
75426;SDS011;64007;50.632;13.700;2023-07-09T08:40:12;4.28;;;2.88;;
75426;SDS011;64007;50.632;13.700;2023-07-09T08:42:44;5.05;;;2.60;;
75426;SDS011;64007;50.632;13.700;2023-07-09T08:47:58;5.32;;;2.60;;
75426;SDS011;64007;50.632;13.700;2023-07-09T08:50:45;8.43;;;2.88;;
75426;SDS011;64007;50.632;13.700;2023-07-09T08:53:18;14.55;;;2.97;;
75426;SDS011;64007;50.632;13.700;2023-07-09T08:55:47;11.63;;;3.10;;
75426;SDS011;64007;50.632;13.700;2023-07-09T08:58:25;10.77;;;3.33;;
75426;SDS011;64007;50.632;13.700;2023-07-09T09:00:54;24.25;;;3.13;;
75426;SDS011;64007;50.632;13.700;2023-07-09T09:06:10;20.80;;;3.70;;
75426;SDS011;64007;50.632;13.700;2023-07-09T09:08:44;20.98;;;3.85;;
75426;SDS011;64007;50.632;13.700;2023-07-09T09:14:29;15.27;;;3.83;;
75426;SDS011;64007;50.632;13.700;2023-07-09T09:16:58;22.60;;;3.30;;
75426;SDS011;64007;50.632;13.700;2023-07-09T09:21:56;23.23;;;3.80;;
75426;SDS011;64007;50.632;13.700;2023-07-09T09:24:37;13.35;;;3.20;;
75426;SDS011;64007;50.632;13.700;2023-07-09T09:27:08;14.82;;;3.13;;
75426;SDS011;64007;50.632;13.700;2023-07-09T09:29:34;14.95;;;2.90;;
75426;SDS011;64007;50.632;13.700;2023-07-09T09:32:02;9.98;;;3.00;;
75426;SDS011;64007;50.632;13.700;2023-07-09T09:34:43;15.25;;;3.03;;
75426;SDS011;64007;50.632;13.700;2023-07-09T09:37:10;13.15;;;2.70;;
75426;SDS011;64007;50.632;13.700;2023-07-09T09:39:39;20.52;;;3.00;;
75426;SDS011;64007;50.632;13.700;2023-07-09T09:42:09;8.95;;;2.97;;
75426;SDS011;64007;50.632;13.700;2023-07-09T09:44:42;14.07;;;2.90;;
75426;SDS011;64007;50.632;13.700;2023-07-09T09:47:10;4.45;;;2.60;;
75426;SDS011;64007;50.632;13.700;2023-07-09T09:49:40;5.38;;;2.67;;
75426;SDS011;64007;50.632;13.700;2023-07-09T09:52:13;6.38;;;2.50;;
75426;SDS011;64007;50.632;13.700;2023-07-09T09:54:41;7.57;;;2.90;;
75426;SDS011;64007;50.632;13.700;2023-07-09T09:57:18;4.18;;;2.53;;
75426;SDS011;64007;50.632;13.700;2023-07-09T09:59:46;6.53;;;2.70;;
75426;SDS011;64007;50.632;13.700;2023-07-09T10:02:19;11.70;;;3.03;;
75426;SDS011;64007;50.632;13.700;2023-07-09T10:04:46;7.45;;;2.83;;
75426;SDS011;64007;50.632;13.700;2023-07-09T10:07:23;7.00;;;2.30;;
75426;SDS011;64007;50.632;13.700;2023-07-09T10:09:55;8.52;;;2.65;;
75426;SDS011;64007;50.632;13.700;2023-07-09T10:14:58;10.88;;;2.97;;
75426;SDS011;64007;50.632;13.700;2023-07-09T10:31:40;9.52;;;3.13;;
75426;SDS011;64007;50.632;13.700;2023-07-09T10:39:25;5.15;;;3.35;;
75426;SDS011;64007;50.632;13.700;2023-07-09T10:45:10;7.88;;;3.15;;
75426;SDS011;64007;50.632;13.700;2023-07-09T10:47:39;9.75;;;2.97;;
75426;SDS011;64007;50.632;13.700;2023-07-09T10:50:27;11.57;;;3.08;;
75426;SDS011;64007;50.632;13.700;2023-07-09T10:52:58;8.82;;;3.08;;
75426;SDS011;64007;50.632;13.700;2023-07-09T10:55:40;7.00;;;3.00;;
75426;SDS011;64007;50.632;13.700;2023-07-09T11:00:41;8.65;;;3.50;;
75426;SDS011;64007;50.632;13.700;2023-07-09T11:06:19;3.90;;;2.58;;
75426;SDS011;64007;50.632;13.700;2023-07-09T11:08:48;8.82;;;3.28;;
75426;SDS011;64007;50.632;13.700;2023-07-09T11:11:22;6.95;;;2.95;;
75426;SDS011;64007;50.632;13.700;2023-07-09T11:13:53;4.85;;;2.95;;
75426;SDS011;64007;50.632;13.700;2023-07-09T11:16:29;5.28;;;2.90;;
75426;SDS011;64007;50.632;13.700;2023-07-09T11:18:59;6.00;;;3.40;;
75426;SDS011;64007;50.632;13.700;2023-07-09T11:21:27;5.22;;;2.80;;
75426;SDS011;64007;50.632;13.700;2023-07-09T11:23:54;8.20;;;3.13;;
75426;SDS011;64007;50.632;13.700;2023-07-09T11:28:53;4.45;;;2.90;;
75426;SDS011;64007;50.632;13.700;2023-07-09T11:31:40;6.63;;;3.15;;
75426;SDS011;64007;50.632;13.700;2023-07-09T11:34:15;7.07;;;3.42;;
75426;SDS011;64007;50.632;13.700;2023-07-09T11:36:50;4.95;;;3.50;;
75426;SDS011;64007;50.632;13.700;2023-07-09T11:39:41;5.97;;;3.25;;
75426;SDS011;64007;50.632;13.700;2023-07-09T11:44:48;5.22;;;2.92;;
75426;SDS011;64007;50.632;13.700;2023-07-09T11:47:19;4.05;;;3.03;;
75426;SDS011;64007;50.632;13.700;2023-07-09T11:49:57;7.95;;;3.13;;
75426;SDS011;64007;50.632;13.700;2023-07-09T11:52:30;8.38;;;3.22;;
75426;SDS011;64007;50.632;13.700;2023-07-09T11:55:26;6.07;;;3.08;;
75426;SDS011;64007;50.632;13.700;2023-07-09T11:57:57;8.00;;;3.03;;
75426;SDS011;64007;50.632;13.700;2023-07-09T12:00:27;6.75;;;3.22;;
75426;SDS011;64007;50.632;13.700;2023-07-09T12:02:55;9.38;;;3.20;;
75426;SDS011;64007;50.632;13.700;2023-07-09T12:05:29;4.60;;;2.95;;
75426;SDS011;64007;50.632;13.700;2023-07-09T12:07:55;5.10;;;3.15;;
75426;SDS011;64007;50.632;13.700;2023-07-09T12:10:27;4.60;;;3.45;;
75426;SDS011;64007;50.632;13.700;2023-07-09T12:12:58;10.73;;;3.25;;
75426;SDS011;64007;50.632;13.700;2023-07-09T12:15:26;8.15;;;3.28;;
75426;SDS011;64007;50.632;13.700;2023-07-09T12:17:55;7.05;;;3.35;;
75426;SDS011;64007;50.632;13.700;2023-07-09T12:20:24;6.30;;;3.40;;
75426;SDS011;64007;50.632;13.700;2023-07-09T12:22:51;15.38;;;3.55;;
75426;SDS011;64007;50.632;13.700;2023-07-09T12:25:21;9.73;;;3.30;;
75426;SDS011;64007;50.632;13.700;2023-07-09T12:27:50;5.45;;;3.30;;
75426;SDS011;64007;50.632;13.700;2023-07-09T12:30:16;11.43;;;4.10;;
75426;SDS011;64007;50.632;13.700;2023-07-09T12:32:43;4.57;;;3.35;;
75426;SDS011;64007;50.632;13.700;2023-07-09T12:35:15;6.70;;;3.58;;
75426;SDS011;64007;50.632;13.700;2023-07-09T12:37:43;5.63;;;3.65;;
75426;SDS011;64007;50.632;13.700;2023-07-09T12:40:16;10.57;;;4.00;;
75426;SDS011;64007;50.632;13.700;2023-07-09T12:42:45;8.35;;;4.00;;
75426;SDS011;64007;50.632;13.700;2023-07-09T12:45:16;7.20;;;3.90;;
75426;SDS011;64007;50.632;13.700;2023-07-09T12:47:44;7.78;;;3.70;;
75426;SDS011;64007;50.632;13.700;2023-07-09T12:50:31;11.40;;;3.67;;
75426;SDS011;64007;50.632;13.700;2023-07-09T12:53:02;9.75;;;3.63;;
75426;SDS011;64007;50.632;13.700;2023-07-09T12:55:40;5.53;;;3.25;;
75426;SDS011;64007;50.632;13.700;2023-07-09T12:58:16;8.88;;;3.75;;
75426;SDS011;64007;50.632;13.700;2023-07-09T13:00:50;4.65;;;3.15;;
75426;SDS011;64007;50.632;13.700;2023-07-09T13:03:21;7.70;;;3.60;;
75426;SDS011;64007;50.632;13.700;2023-07-09T13:05:55;8.27;;;3.63;;
75426;SDS011;64007;50.632;13.700;2023-07-09T13:08:32;7.75;;;4.10;;
75426;SDS011;64007;50.632;13.700;2023-07-09T13:11:15;6.47;;;3.90;;
75426;SDS011;64007;50.632;13.700;2023-07-09T13:13:52;6.05;;;3.50;;
75426;SDS011;64007;50.632;13.700;2023-07-09T13:16:19;7.50;;;3.85;;
75426;SDS011;64007;50.632;13.700;2023-07-09T13:18:45;6.47;;;3.50;;
75426;SDS011;64007;50.632;13.700;2023-07-09T13:21:16;11.93;;;4.00;;
75426;SDS011;64007;50.632;13.700;2023-07-09T13:23:44;4.93;;;3.40;;
75426;SDS011;64007;50.632;13.700;2023-07-09T13:26:09;5.18;;;3.53;;
75426;SDS011;64007;50.632;13.700;2023-07-09T13:28:35;9.38;;;4.05;;
75426;SDS011;64007;50.632;13.700;2023-07-09T13:31:07;6.18;;;3.22;;
75426;SDS011;64007;50.632;13.700;2023-07-09T13:33:37;5.60;;;3.53;;
75426;SDS011;64007;50.632;13.700;2023-07-09T13:36:03;7.78;;;3.83;;
75426;SDS011;64007;50.632;13.700;2023-07-09T13:38:29;6.90;;;3.53;;
75426;SDS011;64007;50.632;13.700;2023-07-09T13:40:56;5.47;;;4.03;;
75426;SDS011;64007;50.632;13.700;2023-07-09T13:43:28;4.95;;;3.72;;
75426;SDS011;64007;50.632;13.700;2023-07-09T13:45:56;7.60;;;3.80;;
75426;SDS011;64007;50.632;13.700;2023-07-09T13:48:23;5.63;;;3.63;;
75426;SDS011;64007;50.632;13.700;2023-07-09T13:50:50;5.75;;;4.00;;
75426;SDS011;64007;50.632;13.700;2023-07-09T13:53:19;5.53;;;3.90;;
75426;SDS011;64007;50.632;13.700;2023-07-09T13:55:47;5.28;;;3.95;;
75426;SDS011;64007;50.632;13.700;2023-07-09T13:58:16;8.82;;;3.83;;
75426;SDS011;64007;50.632;13.700;2023-07-09T14:00:44;7.05;;;4.30;;
75426;SDS011;64007;50.632;13.700;2023-07-09T14:03:22;6.47;;;4.32;;
75426;SDS011;64007;50.632;13.700;2023-07-09T14:05:50;6.55;;;4.38;;
75426;SDS011;64007;50.632;13.700;2023-07-09T14:08:16;5.00;;;4.47;;
75426;SDS011;64007;50.632;13.700;2023-07-09T14:10:44;5.30;;;4.20;;
75426;SDS011;64007;50.632;13.700;2023-07-09T14:13:14;4.68;;;3.95;;
75426;SDS011;64007;50.632;13.700;2023-07-09T14:15:41;5.10;;;4.22;;
75426;SDS011;64007;50.632;13.700;2023-07-09T14:18:14;6.30;;;4.22;;
75426;SDS011;64007;50.632;13.700;2023-07-09T14:20:42;11.75;;;4.38;;
75426;SDS011;64007;50.632;13.700;2023-07-09T14:23:10;6.07;;;4.15;;
75426;SDS011;64007;50.632;13.700;2023-07-09T14:25:37;5.35;;;3.60;;
75426;SDS011;64007;50.632;13.700;2023-07-09T14:28:13;4.60;;;3.60;;
75426;SDS011;64007;50.632;13.700;2023-07-09T14:30:40;8.02;;;3.90;;
75426;SDS011;64007;50.632;13.700;2023-07-09T14:33:09;5.88;;;4.13;;
75426;SDS011;64007;50.632;13.700;2023-07-09T14:38:03;5.68;;;3.60;;
75426;SDS011;64007;50.632;13.700;2023-07-09T14:40:39;6.32;;;3.83;;
75426;SDS011;64007;50.632;13.700;2023-07-09T14:43:07;7.43;;;3.90;;
75426;SDS011;64007;50.632;13.700;2023-07-09T14:45:35;6.68;;;3.90;;
75426;SDS011;64007;50.632;13.700;2023-07-09T14:48:01;6.28;;;4.30;;
75426;SDS011;64007;50.632;13.700;2023-07-09T14:50:33;5.22;;;4.60;;
75426;SDS011;64007;50.632;13.700;2023-07-09T14:52:59;8.63;;;4.03;;
75426;SDS011;64007;50.632;13.700;2023-07-09T14:55:25;8.35;;;4.00;;
75426;SDS011;64007;50.632;13.700;2023-07-09T14:57:51;5.22;;;4.00;;
75426;SDS011;64007;50.632;13.700;2023-07-09T15:00:18;10.48;;;4.43;;
75426;SDS011;64007;50.632;13.700;2023-07-09T15:02:46;7.82;;;4.22;;
75426;SDS011;64007;50.632;13.700;2023-07-09T15:05:16;9.38;;;4.40;;
75426;SDS011;64007;50.632;13.700;2023-07-09T15:07:44;5.43;;;4.20;;
75426;SDS011;64007;50.632;13.700;2023-07-09T15:10:18;5.97;;;4.40;;
75426;SDS011;64007;50.632;13.700;2023-07-09T15:12:48;5.85;;;4.10;;
75426;SDS011;64007;50.632;13.700;2023-07-09T15:15:17;7.25;;;4.53;;
75426;SDS011;64007;50.632;13.700;2023-07-09T15:17:47;5.07;;;4.05;;
75426;SDS011;64007;50.632;13.700;2023-07-09T15:20:19;5.65;;;4.25;;
75426;SDS011;64007;50.632;13.700;2023-07-09T15:22:48;5.10;;;4.47;;
75426;SDS011;64007;50.632;13.700;2023-07-09T15:25:16;4.70;;;4.30;;
75426;SDS011;64007;50.632;13.700;2023-07-09T15:27:45;11.15;;;4.47;;
75426;SDS011;64007;50.632;13.700;2023-07-09T15:30:15;4.85;;;4.22;;
75426;SDS011;64007;50.632;13.700;2023-07-09T15:32:45;9.05;;;4.45;;
75426;SDS011;64007;50.632;13.700;2023-07-09T15:35:12;6.72;;;4.32;;